x

East Scotia Slope (44137) Wave Buoy

9:00pm - Tue 24th May 2016 All times are EDT. -4 hours from GMT.

  • Sig Wave height 4.9ft
  • Peak Period 7s
  • Wind
    11mph, 13mph gusts
  • Sea Temp 64°f
  • Air Temp 65°f
  • Sea Pressure 1018.2mb
  • East Scotia Slope
  • East Scotia Slope

More Historic Weather Station data

Upgrade to MSW Pro to gain access to the past 30 days of data for over 8000 Wavebouys and Weather Stations around the globe.

Join Pro

Comparision Forecast

View Surf forecast
   
Tue 05/24 9:00pm 5ft 7s 11 13 mph 1018.2mb 64f 65f
8:00pm 5ft 8s 11 13 mph 1017.8mb 64f 65f
7:00pm 5.5ft 7s 9 11 mph 1017.9mb 64f 65f
6:00pm 5ft 8s 9 11 mph 1017.9mb 64f 65f
5:00pm 5ft 8s 11 13 mph 1017.9mb 64f 66f
4:00pm 5.5ft 8s 9 11 mph 1018mb 64f 65f
3:00pm 5ft 8s 7
mph
1018.6mb 64f 65f
2:00pm 5ft 11s 11 13 mph 1018.5mb 64f 66f
1:00pm 4.5ft 8s 9 11 mph 1018.4mb 63f 65f
12:00pm 5ft 8s 13 16 mph 1018.6mb 63f 66f
11:00am 4.5ft 8s 16 18 mph 1018.6mb 63f 66f
10:00am 4.5ft 8s 11 13 mph 1018.6mb 63f 65f
9:00am 4.5ft 8s 11 13 mph 1018.4mb 63f 65f
8:00am 4.5ft 8s 11 13 mph 1018.4mb 63f 65f
7:00am 5ft 9s 9 11 mph 1018mb 63f 64f
6:00am 5ft 9s 9
mph
1018.3mb 63f 65f
5:00am 5ft 8s 7
mph
1018mb 63f 64f
4:00am 5ft 9s 7 9 mph 1017.7mb 62f 64f
3:00am 5.5ft 9s 7 9 mph 1017.2mb 61f 64f
2:00am 6ft 8s 7 9 mph 1016.7mb 61f 63f
1:00am 6ft 8s 4 7 mph 1016.8mb 61f 64f
12:00am 7ft 9s 4 7 mph 1016.5mb 60f 63f
Mon 05/23 11:00pm 7ft 8s 4
mph
1016.6mb 60f 62f
10:00pm 7ft 9s 2 4 mph 1016.4mb 60f 61f
9:00pm 7ft 8s 2 4 mph 1015.7mb 60f 61f
8:00pm 7ft 10s 4
mph
1015.6mb 60f 60f
7:00pm 7ft 9s 7 9 mph 1015.1mb 61f 60f
6:00pm 8ft 9s 4 7 mph 1014.9mb 61f 59f
5:00pm 7.5ft 9s 7 9 mph 1014.3mb 61f 58f
4:00pm 8ft 9s 9 11 mph 1014.5mb 61f 57f
3:00pm 8ft 10s 13 16 mph 1014.4mb 60f 57f
2:00pm 9.5ft 10s 13 18 mph 1013.9mb 60f 57f
1:00pm 9.5ft 10s 16 18 mph 1013.2mb 60f 56f
12:00pm 10ft 10s 18 22 mph 1013mb 60f 56f
11:00am 10ft 9s 20 25 mph 1012.4mb 60f 56f
10:00am 12ft 10s 22 27 mph 1011.7mb 60f 56f
9:00am 11ft 10s 25 29 mph 1010.9mb 60f 56f
8:00am 12ft 10s 25 27 mph 1010.2mb 60f 55f
7:00am 12ft 10s 27 31 mph 1009.2mb 60f 55f
6:00am 12ft 10s 27 31 mph 1008.3mb 60f 56f
5:00am 12ft 10s 25 31 mph 1007.6mb 60f 56f
4:00am 12ft 12s 25 29 mph 1006.8mb 60f 57f
3:00am 12.5ft 11s 20 25 mph 1006.6mb 60f 58f
2:00am 14ft 10s 18 20 mph 1006.2mb 60f 60f
1:00am 13ft 10s 18 25 mph 1005.8mb 60f 63f
12:00am 14ft 11s 20 27 mph 1005.3mb 60f 65f
Sun 05/22 11:00pm 14.5ft 11s 18 22 mph 1005.1mb 60f 64f
10:00pm 15ft 10s 20 25 mph 1005.5mb 60f 64f
9:00pm 14.5ft 10s 20 25 mph 1005.9mb 60f 64f
8:00pm 13ft 10s 22 31 mph 1005.5mb 60f 65f
7:00pm 13.5ft 10s 27 34 mph 1005.6mb 60f 64f
6:00pm 11ft 8s 27 36 mph 1005.9mb 60f 64f
5:00pm 9ft 8s 27 34 mph 1006.4mb 60f 62f
4:00pm 9ft 8s 31 38 mph 1007.4mb 60f 62f
3:00pm 7.5ft 7s 31 40 mph 1009.1mb 60f 62f
2:00pm 7ft 5s 31 38 mph 1010.8mb 60f 61f
1:00pm 5.5ft 5s 29 36 mph 1011.6mb 60f 62f
12:00pm 4.5ft 9s 27 34 mph 1011.6mb 60f 62f
11:00am 4ft 9s 20 25 mph 1014.8mb 60f 62f
10:00am 3.5ft 10s 18 22 mph 1015.8mb 60f 62f
9:00am 3.5ft 10s 18 20 mph 1015.8mb 60f 62f
8:00am 3.5ft 10s 13 16 mph 1016.3mb 60f 62f
7:00am 3.5ft 9s 9
mph
1016.8mb 60f 61f
6:00am 4ft 9s 7
mph
1017.2mb 60f 61f
5:00am 3.5ft 9s 7 9 mph 1017.3mb 60f 61f
4:00am 3.5ft 9s 7
mph
1017.5mb 61f 60f
3:00am 4ft 9s 7 9 mph 1017.8mb 61f 60f
2:00am 3.5ft 10s 9 11 mph 1018.2mb 61f 59f
1:00am 4ft 10s 11 13 mph 1018.7mb 61f 58f
12:00am 4ft 9s 13 18 mph 1019.2mb 61f 58f
Sat 05/21 11:00pm 3.5ft 5s 16 18 mph 1019.5mb 61f 58f
10:00pm 4ft  -  18 22 mph 1019.8mb 61f 58f
9:00pm 4ft 5s 20 22 mph 1019.8mb 62f 58f
8:00pm 4ft 8s 20 22 mph 1019.5mb 62f 58f
7:00pm 4ft 5s 20 22 mph 1019.5mb 62f 58f
6:00pm 4.5ft 5s 22 27 mph 1019.5mb 62f 58f
5:00pm 4ft 5s 22 27 mph 1019.3mb 62f 58f
4:00pm 4ft 5s 22 27 mph 1019.1mb 62f 59f
3:00pm 4ft 8s 20 25 mph 1019.1mb 62f 59f
2:00pm 4.5ft 5s 20 22 mph 1019.3mb 62f 58f
1:00pm 4.5ft 5s 20 25 mph 1019.4mb 62f 59f
12:00pm 4.5ft 5s 22 27 mph 1019.7mb 62f 59f
11:00am 5ft 5s 22 29 mph 1019.7mb 62f 58f
10:00am 4.5ft 5s 22 29 mph 1019.8mb 62f 58f
9:00am 4.5ft 8s 25 29 mph 1019.7mb 62f 57f
8:00am 4ft 5s 25 29 mph 1019.9mb 62f 56f
7:00am 3.5ft 7s 22 27 mph 1019.7mb 62f 56f
6:00am 3.5ft 9s 22 27 mph 1019.9mb 62f 55f
5:00am 3.5ft 9s 18 22 mph 1019.6mb 62f 54f
4:00am 3.5ft 8s 20 22 mph 1019.4mb 62f 54f
3:00am 3.5ft 8s 18 22 mph 1019.3mb 62f 54f